Latest Weather Observations for Charlton

IDV60801

Issued at 11:02 am EDT Wednesday 4 March 2015 (issued every 30 minutes, with the page automatically refreshed every 10 minutes)

About weather observations | Map of weather stations | Latest weather observations for VIC | Other Formats
Station Details ID: 080128 Name: CHARLTON Lat: -36.28 Lon: 143.33 Height: 131.7 m
Data from the previous 72 hours. | See also: Recent months at Charlton
Date/Time
EDT
Temp
°C
App
Temp
°C
Dew
Point
Rel
Hum
%
Delta-T
°C
Wind Press
QNH
hPa
Press
MSL
hPa
Rain
since 9 am
mm
Dir
 
Spd
km/h
Gust
km/h
Spd
kts
Gust
kts
04/11:00am 19.2 17.0 7.9 48 5.8 SW 9 20 5 11 1016.5 1016.1 0.0
04/10:30am 18.2 15.5 7.3 49 5.5 SW 11 19 6 10 1016.6 1016.2 0.0
04/10:00am 17.3 14.3 7.6 53 4.9 SSW 13 20 7 11 1017.0 1016.6 0.0
04/09:30am 15.7 13.2 8.4 62 3.7 SSW 11 15 6 8 1016.7 1016.3 0.0
04/09:00am 14.3 12.6 8.5 68 2.9 SW 7 11 4 6 1016.7 1016.3 0.0
04/08:30am 12.1 10.5 8.0 76 2.0 SW 6 9 3 5 1016.6 1016.2 0.0
04/08:00am 10.5 8.7 7.2 80 1.6 W 6 7 3 4 1016.1 1015.7 0.0
04/07:30am 10.3 8.6 7.4 82 1.4 WSW 6 11 3 6 1015.6 1015.2 0.0
04/07:00am 10.1 8.7 7.2 82 1.4 WSW 4 6 2 3 1015.3 1014.9 0.0
04/06:30am 10.7 10.1 7.6 81 1.5 CALM 0 0 0 0 1015.3 1014.9 0.0
04/06:00am 10.8 9.8 7.3 79 1.7 SW 2 6 1 3 1015.1 1014.7 0.0
04/05:30am 11.7 11.2 8.0 78 1.8 CALM 0 0 0 0 1015.0 1014.6 0.0
04/05:00am 12.4 10.6 8.1 75 2.1 SW 7 9 4 5 1014.9 1014.5 0.0
04/04:30am 13.1 11.0 8.4 73 2.4 SSW 9 11 5 6 1014.9 1014.5 0.0
04/04:00am 13.3 11.7 8.6 73 2.4 SSW 7 11 4 6 1014.9 1014.5 0.0
04/03:30am 13.7 12.0 8.5 71 2.6 S 7 9 4 5 1014.9 1014.5 0.0
04/03:00am 14.6 12.6 8.8 68 3.0 S 9 13 5 7 1015.1 1014.7 0.0
04/02:30am 15.4 13.3 8.4 63 3.6 SSW 9 17 5 9 1015.2 1014.8 0.0
04/02:00am 15.7 13.8 7.7 59 4.0 S 7 11 4 6 1015.2 1014.8 0.0
04/01:30am 16.8 14.3 8.0 56 4.5 S 11 17 6 9 1015.4 1015.0 0.0
04/01:00am 16.6 14.1 6.7 52 4.9 S 9 15 5 8 1015.5 1015.1 0.0
04/12:30am 16.9 14.4 4.9 45 5.7 S 7 13 4 7 1015.5 1015.1 0.0
04/12:00am 18.9 15.9 3.9 37 7.1 SSW 9 17 5 9 1015.4 1015.0 0.0
 
Date/Time
EDT
Temp
°C
App
Temp
°C
Dew
Point
Rel
Hum
%
Delta-T
°C
Wind Press
QNH
hPa
Press
MSL
hPa
Rain
since 9 am
mm
Dir
 
Spd
km/h
Gust
km/h
Spd
kts
Gust
kts
03/11:30pm 19.2 16.4 3.4 35 7.5 SW 7 11 4 6 1015.3 1014.9 0.0
03/11:00pm 19.6 16.8 2.9 33 7.8 SW 7 11 4 6 1015.3 1014.9 0.0
03/10:30pm 19.6 16.6 2.0 31 8.1 SW 7 11 4 6 1015.2 1014.8 0.0
03/10:00pm 19.6 16.8 2.0 31 8.1 WSW 6 9 3 5 1015.1 1014.7 0.0
03/09:30pm 19.8 17.2 3.1 33 7.9 W 6 7 3 4 1014.7 1014.3 0.0
03/09:00pm 21.1 18.4 2.9 30 8.6 SSW 6 9 3 5 1014.4 1014.0 0.0
03/08:30pm 23.0 20.7 3.0 27 9.6 S 4 9 2 5 1014.1 1013.7 0.0
03/08:00pm 24.9 22.2 3.5 25 10.6 SSW 7 11 4 6 1013.8 1013.4 0.0
03/07:30pm 26.3 23.2 3.5 23 11.4 S 9 17 5 9 1013.6 1013.2 0.0
03/07:00pm 28.0 24.9 3.7 21 12.3 SW 9 15 5 8 1013.4 1013.0 0.0
03/06:30pm 28.3 24.1 3.9 21 12.4 SSW 15 22 8 12 1013.4 1013.0 0.0
03/06:00pm 28.7 24.7 2.8 19 12.9 SSW 13 20 7 11 1013.4 1013.0 0.0
03/05:30pm 29.5 25.6 3.5 19 13.2 WSW 13 24 7 13 1013.3 1012.9 0.0
03/05:00pm 29.9 26.5 3.8 19 13.4 SSW 11 17 6 9 1013.4 1013.0 0.0
03/04:30pm 29.0 24.4 1.5 17 13.5 SW 15 24 8 13 1013.6 1013.2 0.0
03/04:00pm 29.1 25.3 3.9 20 12.9 SW 13 22 7 12 1014.0 1013.6 0.0
03/03:30pm 28.4 23.9 4.0 21 12.4 SW 17 24 9 13 1014.3 1013.9 0.0
03/03:00pm 28.3 24.1 3.9 21 12.4 SW 15 24 8 13 1014.6 1014.2 0.0
03/02:30pm 28.9 25.5 5.7 23 12.2 SW 13 26 7 14 1014.9 1014.5 0.0
03/02:00pm 28.3 23.9 4.6 22 12.2 WSW 17 30 9 16 1015.1 1014.7 0.0
03/01:30pm 27.7 24.5 5.3 24 11.6 SW 11 19 6 10 1015.4 1015.0 0.0
03/01:00pm 27.9 24.9 6.1 25 11.5 SW 11 20 6 11 1015.7 1015.3 0.0
03/12:30pm 26.6 23.7 6.6 28 10.5 SSW 11 19 6 10 1016.3 1015.9 0.0
03/12:00pm 25.1 23.0 6.8 31 9.6 S 7 13 4 7 1016.3 1015.9 0.0
03/11:30am 24.3 22.1 6.1 31 9.4 SSE 7 13 4 7 1016.5 1016.1 0.0
03/11:00am 23.9 21.6 7.5 35 8.6 S 9 13 5 7 1016.5 1016.1 0.0
03/10:30am 23.1 21.1 8.8 40 7.7 S 9 13 5 7 1016.3 1015.9 0.0
03/10:00am 21.1 19.0 8.4 44 6.7 SSE 9 15 5 8 1016.1 1015.7 0.0
03/09:30am 20.4 18.1 9.0 48 6.1 SE 11 15 6 8 1016.0 1015.6 0.0
03/09:00am 19.4 16.7 9.0 51 5.5 SSE 13 19 7 10 1016.1 1015.7 0.0
03/08:30am 18.7 16.0 8.9 53 5.1 SSE 13 17 7 9 1015.9 1015.5 0.0
03/08:00am 18.1 16.0 8.4 53 5.0 S 9 13 5 7 1015.6 1015.2 0.0
03/07:30am 17.9 15.8 8.2 53 5.0 S 9 13 5 7 1015.4 1015.0 0.0
03/07:00am 18.0 15.9 8.3 53 5.0 S 9 15 5 8 1015.2 1014.8 0.0
03/06:30am 18.3 16.2 8.3 52 5.2 S 9 15 5 8 1014.6 1014.2 0.0
03/06:00am 18.5 14.9 8.2 51 5.3 SSE 17 24 9 13 1014.5 1014.1 0.0
03/05:30am 18.7 16.5 7.8 49 5.6 S 9 17 5 9 1014.2 1013.8 0.0
03/05:00am 19.0 16.7 7.4 47 5.9 S 9 15 5 8 1014.1 1013.7 0.0
03/04:30am 19.2 16.5 7.3 46 6.1 S 11 20 6 11 1014.0 1013.6 0.0
03/04:00am 19.3 16.6 7.4 46 6.1 S 11 22 6 12 1013.7 1013.3 0.0
03/03:30am 19.4 16.6 6.8 44 6.4 S 11 17 6 9 1014.1 1013.7 0.0
03/03:00am 19.8 16.8 6.2 41 6.8 SSE 11 17 6 9 1014.0 1013.6 0.0
03/02:30am 19.9 17.0 4.8 37 7.4 SSE 9 13 5 7 1014.1 1013.7 0.0
03/02:00am 19.5 16.5 1.9 31 8.1 S 7 9 4 5 1014.1 1013.7 0.0
03/01:30am 20.3 16.4 -1.5 23 9.4 SSW 9 15 5 8 1014.2 1013.8 0.0
03/01:00am 19.0 16.9 1.5 31 7.9 SW 2 6 1 3 1014.3 1013.9 0.0
03/12:30am 19.7 17.7 0.2 27 8.7 CALM 0 0 0 0 1014.2 1013.8 0.0
03/12:00am 19.6 17.6 -0.4 26 8.8 CALM 0 4 0 2 1014.2 1013.8 0.0
 
Date/Time
EDT
Temp
°C
App
Temp
°C
Dew
Point
Rel
Hum
%
Delta-T
°C
Wind Press
QNH
hPa
Press
MSL
hPa
Rain
since 9 am
mm
Dir
 
Spd
km/h
Gust
km/h
Spd
kts
Gust
kts
02/11:30pm 20.2 17.2 -2.2 22 9.5 SW 4 7 2 4 1014.5 1014.1 0.0
02/11:00pm 20.3 17.9 -0.3 25 9.1 WSW 2 7 1 4 1014.7 1014.3 0.0
02/10:30pm 20.9 18.8 -1.0 23 9.6 CALM 0 0 0 0 1014.5 1014.1 0.0
02/10:00pm 21.1 17.9 -0.8 23 9.7 SSW 6 7 3 4 1014.4 1014.0 0.0
02/09:30pm 22.0 19.2 -0.7 22 10.1 WSW 4 7 2 4 1014.4 1014.0 0.0
02/09:00pm 22.2 18.9 0.1 23 10.0 WNW 7 9 4 5 1014.4 1014.0 0.0
02/08:30pm 23.3 20.3 -1.6 19 11.0 WSW 4 9 2 5 1013.9 1013.5 0.0
02/08:00pm 24.0 20.6 -0.3 20 11.1 W 7 9 4 5 1014.2 1013.8 0.0
02/07:30pm 24.4 22.5 0.7 21 11.1 CALM 0 0 0 0 1013.5 1013.1 0.0
02/07:00pm 25.1 22.2 -0.9 18 11.8 SW 4 9 2 5 1013.3 1012.9 0.0
02/06:30pm 25.6 22.9 0.3 19 11.8 SSE 4 7 2 4 1013.3 1012.9 0.0
02/06:00pm 25.8 22.6 -0.3 18 12.1 WSW 6 7 3 4 1013.6 1013.2 0.0
02/05:30pm 26.2 22.4 -0.8 17 12.4 NW 9 11 5 6 1013.8 1013.4 0.0
02/05:00pm 26.2 23.5 0.0 18 12.2 N 4 9 2 5 1013.5 1013.1 0.0
02/04:30pm 25.2 21.5 0.0 19 11.7 WNW 9 13 5 7 1013.6 1013.2 0.0
02/04:00pm 25.0 22.1 1.2 21 11.3 NE 6 9 3 5 1013.1 1012.7 0.0
02/03:30pm 24.7 21.6 1.6 22 11.0 NNE 7 13 4 7 1013.7 1013.3 0.0
02/03:00pm 24.9 21.7 3.0 24 10.7 E 9 15 5 8 1014.1 1013.7 0.0
02/02:30pm 24.4 22.0 1.9 23 10.7 W 4 7 2 4 1014.8 1014.4 0.0
02/02:00pm 24.5 21.6 2.6 24 10.6 SSE 7 9 4 5 1015.2 1014.8 0.0
02/01:30pm 23.6 20.9 3.5 27 9.8 SSE 7 11 4 6 1015.6 1015.2 0.0
02/01:00pm 23.5 21.0 4.0 28 9.6 NNW 6 13 3 7 1015.9 1015.5 0.0
02/12:30pm 23.0 19.8 5.0 31 9.0 ENE 11 20 6 11 1016.3 1015.9 0.0
02/12:00pm 21.7 18.4 4.7 33 8.4 NNE 11 20 6 11 1016.7 1016.3 0.0
02/11:30am 21.1 18.1 6.2 38 7.5 NE 11 17 6 9 1017.3 1016.9 0.0
02/11:00am 19.7 16.1 6.8 43 6.5 ENE 15 22 8 12 1017.1 1016.7 0.0
02/10:30am 19.1 15.9 6.9 45 6.2 ENE 13 20 7 11 1017.5 1017.1 0.0
02/10:00am 17.1 14.1 7.5 53 4.8 E 13 20 7 11 1017.6 1017.2 0.0
02/09:30am 16.2 12.8 7.7 57 4.3 ESE 15 24 8 13 1018.0 1017.6 0.0
02/09:00am 14.1 11.5 7.9 66 3.1 SE 11 13 6 7 1018.1 1017.8 0.0
02/08:30am 12.3 10.4 7.6 73 2.3 SSE 7 11 4 6 1017.9 1017.5 0.0
02/08:00am 10.4 9.0 7.3 81 1.5 SSE 4 7 2 4 1017.8 1017.4 0.0
02/07:30am 8.9 7.3 6.3 84 1.2 SSE 4 6 2 3 1017.5 1017.1 0.0
02/07:00am 9.2 8.0 6.5 83 1.3 S 2 7 1 4 1017.1 1016.7 0.0
02/06:30am 10.1 7.7 7.2 82 1.4 SE 9 11 5 6 1016.7 1016.3 0.0
02/06:00am 10.7 8.0 7.2 79 1.7 SE 11 15 6 8 1016.5 1016.1 0.0
02/05:30am 11.4 8.0 7.5 77 1.9 ESE 15 20 8 11 1016.6 1016.2 0.0
02/05:00am 11.7 8.3 7.8 77 1.9 SE 15 22 8 12 1016.4 1016.0 0.0
02/04:30am 11.1 8.1 7.6 79 1.7 SSE 13 15 7 8 1016.4 1016.0 0.0
02/04:00am 11.5 9.3 8.0 79 1.7 SE 9 13 5 7 1016.5 1016.1 0.0
02/03:30am 12.1 9.2 8.2 77 1.9 SSE 13 17 7 9 1016.8 1016.4 0.0
02/03:00am 12.8 10.4 8.5 75 2.2 SE 11 17 6 9 1016.9 1016.5 0.0
02/02:30am 13.2 9.6 8.5 73 2.4 SSE 17 22 9 12 1016.8 1016.4 0.0
02/02:00am 13.6 10.8 8.4 71 2.6 SSE 13 19 7 10 1017.2 1016.8 0.0
02/01:30am 14.1 11.8 8.9 71 2.7 S 11 15 6 8 1017.5 1017.1 0.0
02/01:00am 13.7 12.0 7.7 67 3.0 SSE 6 7 3 4 1017.4 1017.0 0.0
02/12:30am 14.7 12.5 7.7 63 3.5 SSE 9 13 5 7 1017.4 1017.0 0.0
02/12:00am 15.5 12.9 7.8 60 3.9 SSE 11 15 6 8 1017.2 1016.8 0.0
 
Date/Time
EDT
Temp
°C
App
Temp
°C
Dew
Point
Rel
Hum
%
Delta-T
°C
Wind Press
QNH
hPa
Press
MSL
hPa
Rain
since 9 am
mm
Dir
 
Spd
km/h
Gust
km/h
Spd
kts
Gust
kts
01/11:30pm 16.3 13.3 7.5 56 4.4 SSE 13 17 7 9 1017.3 1016.9 0.0
01/11:00pm 17.5 14.5 7.8 53 4.9 SSE 13 19 7 10 1017.2 1016.8 0.0
01/10:30pm 18.2 14.4 7.6 50 5.4 SSE 17 24 9 13 1016.7 1016.3 0.0
01/10:00pm 18.9 15.1 7.4 47 5.9 SSE 17 24 9 13 1016.3 1015.9 0.0
01/09:30pm 19.5 15.9 6.9 44 6.4 SSE 15 22 8 12 1016.1 1015.7 0.0
01/09:00pm 20.2 15.8 6.5 41 6.9 SSE 19 28 10 15 1015.4 1015.0 0.0
01/08:30pm 20.9 16.7 5.7 37 7.6 SSE 17 26 9 14 1015.2 1014.8 0.0
01/08:00pm 22.0 16.9 5.8 35 8.2 SSE 22 32 12 17 1015.1 1014.7 0.0
01/07:30pm 23.0 17.5 5.9 33 8.7 SSE 24 32 13 17 1014.7 1014.3 0.0
01/07:00pm 24.3 18.6 5.1 29 9.7 SSE 24 35 13 19 1014.4 1014.0 0.0
01/06:30pm 24.7 20.0 6.0 30 9.6 SSE 20 35 11 19 1014.1 1013.7 0.0
01/06:00pm 25.3 19.8 6.0 29 10.0 SSE 24 39 13 21 1013.7 1013.3 0.0
01/05:30pm 25.8 21.9 6.9 30 10.0 S 17 28 9 15 1013.5 1013.1 0.0
01/05:00pm 26.2 21.9 6.8 29 10.2 S 19 30 10 16 1013.6 1013.2 0.0
01/04:30pm 27.3 23.5 7.7 29 10.6 S 17 28 9 15 1013.5 1013.1 0.0
01/04:00pm 25.9 21.6 7.0 30 10.0 SSW 19 35 10 19 1013.4 1013.0 0.0
01/03:30pm 25.6 21.8 7.7 32 9.6 S 17 26 9 14 1013.7 1013.3 0.0
01/03:00pm 25.1 21.3 7.7 33 9.3 S 17 26 9 14 1013.9 1013.5 0.0
01/02:30pm 24.8 21.5 7.9 34 9.0 SSW 15 26 8 14 1014.0 1013.6 0.0
01/02:00pm 24.8 21.1 7.9 34 9.0 S 17 26 9 14 1013.9 1013.5 0.0
01/01:30pm 23.3 19.6 7.8 37 8.2 S 17 26 9 14 1013.9 1013.5 0.0
01/01:00pm 23.1 19.5 8.4 39 7.8 S 17 28 9 15 1014.2 1013.8 0.0
01/12:30pm 21.6 18.8 8.5 43 6.9 SSW 13 26 7 14 1014.4 1014.0 0.0
01/12:00pm 21.7 18.8 9.6 46 6.5 SSW 15 24 8 13 1014.5 1014.1 0.0
01/11:30am 21.5 19.0 9.7 47 6.4 SSW 13 22 7 12 1014.3 1013.9 0.0

Other Formats:

Comma delimited format used in spreadsheet applications
http://www.bom.gov.au/fwo/IDV60801/IDV60801.94839.axf

JavaScript Object Notation format (JSON) in row-major order
http://www.bom.gov.au/fwo/IDV60801/IDV60801.94839.json